createdAt,value
2023-04-25T00:00:00.888Z,99545.78
2023-04-25T00:02:49.503Z,99544.97
2023-04-25T00:05:38.843Z,99549.91
2023-04-25T00:08:27.380Z,99548.63
2023-04-25T00:11:15.866Z,99552.97
2023-04-25T00:14:07.542Z,99554.22
2023-04-25T00:16:56.179Z,99557.28
2023-04-25T00:19:45.634Z,99550.06
2023-04-25T00:22:35.657Z,99554.81
2023-04-25T00:25:24.449Z,99557.69
2023-04-25T00:28:13.013Z,99557.47
2023-04-25T00:31:02.967Z,99555.03
2023-04-25T00:33:51.814Z,99545.56
2023-04-25T00:36:40.694Z,99514.31
2023-04-25T00:39:29.266Z,99543.72
2023-04-25T00:42:18.213Z,99543.31
2023-04-25T00:45:09.115Z,99543.91
2023-04-25T00:47:59.238Z,99495.19
2023-04-25T00:50:53.993Z,99537.31
2023-04-25T00:53:42.430Z,99522.31
2023-04-25T00:56:31.181Z,99523.75
2023-04-25T00:59:20.533Z,99535.06
2023-04-25T01:02:10.304Z,99538.13
2023-04-25T01:05:00.291Z,99529.09
2023-04-25T01:07:49.253Z,99535.84
2023-04-25T01:10:38.012Z,99528.25
2023-04-25T01:13:26.484Z,99536.06
2023-04-25T01:16:15.120Z,99530.31
2023-04-25T01:19:03.748Z,99524.31
2023-04-25T01:21:53.814Z,99529.47
2023-04-25T01:24:42.621Z,99485.28
2023-04-25T01:27:31.428Z,99531.91
2023-04-25T01:30:20.090Z,99527.97
2023-04-25T01:33:10.385Z,99518.31
2023-04-25T01:35:58.821Z,99522.19
2023-04-25T01:38:48.966Z,99522.63
2023-04-25T01:41:37.538Z,99513.97
2023-04-25T01:44:26.392Z,99531.22
2023-04-25T01:47:14.831Z,99519.53
2023-04-25T01:50:03.299Z,99523.00
2023-04-25T01:52:51.733Z,99523.81
2023-04-25T01:55:41.575Z,99527.75
2023-04-25T01:58:30.040Z,99518.09
2023-04-25T02:01:18.567Z,99519.31
2023-04-25T02:04:07.370Z,99496.28
2023-04-25T02:06:55.995Z,99509.22
2023-04-25T02:09:44.411Z,99520.97
2023-04-25T02:12:34.296Z,99519.53
2023-04-25T02:15:22.918Z,99524.88
2023-04-25T02:18:12.159Z,99520.34
2023-04-25T02:21:02.036Z,99522.41
2023-04-25T02:23:53.193Z,99521.56
2023-04-25T02:26:41.833Z,99514.38
2023-04-25T02:29:31.753Z,99519.72
2023-04-25T02:32:20.334Z,99522.81
2023-04-25T02:35:09.624Z,99519.72
2023-04-25T02:37:58.072Z,99516.44
2023-04-25T02:40:46.680Z,99500.00
2023-04-25T02:43:35.079Z,99512.75
2023-04-25T02:46:37.876Z,99506.97
2023-04-25T02:49:27.669Z,99473.94
2023-04-25T02:52:16.099Z,99500.63
2023-04-25T02:55:04.789Z,99496.53
2023-04-25T02:57:53.219Z,99477.41
2023-04-25T03:00:41.737Z,99494.06
2023-04-25T03:03:31.745Z,99498.00
2023-04-25T03:06:20.244Z,99488.28
2023-04-25T03:09:08.699Z,99490.38
2023-04-25T03:11:57.144Z,99493.84
2023-04-25T03:14:45.615Z,99428.94
2023-04-25T03:17:34.213Z,99485.84
2023-04-25T03:20:24.125Z,99495.53
2023-04-25T03:23:12.622Z,99485.25
2023-04-25T03:26:01.503Z,99482.78
2023-04-25T03:28:49.932Z,99478.88
2023-04-25T03:31:38.369Z,99483.81
2023-04-25T03:34:27.008Z,99477.25
2023-04-25T03:37:16.854Z,99478.47
2023-04-25T03:40:06.344Z,99473.16
2023-04-25T03:42:54.835Z,99479.09
2023-04-25T03:45:43.532Z,99478.69
2023-04-25T03:48:32.043Z,99477.84
2023-04-25T03:51:20.513Z,99471.47
2023-04-25T03:54:10.321Z,99479.31
2023-04-25T03:56:58.811Z,99471.47
2023-04-25T03:59:47.270Z,99480.56
2023-04-25T04:02:37.443Z,99491.03
2023-04-25T04:05:26.242Z,99480.53
2023-04-25T04:08:14.726Z,99495.56
2023-04-25T04:11:04.712Z,99503.38
2023-04-25T04:13:53.528Z,99502.16
2023-04-25T04:16:42.049Z,99503.38
2023-04-25T04:19:30.501Z,99494.34
2023-04-25T04:22:19.014Z,99496.38
2023-04-25T04:25:10.378Z,99490.63
2023-04-25T04:28:01.887Z,99490.00
2023-04-25T04:30:52.166Z,99488.53
2023-04-25T04:33:40.731Z,99490.41
2023-04-25T04:36:29.168Z,99492.25
2023-04-25T04:39:17.716Z,99485.69
2023-04-25T04:42:07.663Z,99487.75
2023-04-25T04:44:57.462Z,99489.78
2023-04-25T04:47:46.818Z,99498.44
2023-04-25T04:50:36.556Z,99496.56
2023-04-25T04:53:25.456Z,99485.91
2023-04-25T04:56:13.920Z,99508.72
2023-04-25T04:59:02.854Z,99496.78
2023-04-25T05:01:54.568Z,99505.00
2023-04-25T05:04:43.068Z,99505.19
2023-04-25T05:07:31.739Z,99507.44
2023-04-25T05:10:21.164Z,99412.72
2023-04-25T05:13:09.648Z,99506.56
2023-04-25T05:15:58.152Z,99510.69
2023-04-25T05:18:48.055Z,99516.59
2023-04-25T05:21:36.517Z,99503.09
2023-04-25T05:24:25.073Z,99516.47
2023-04-25T05:27:13.644Z,99519.78
2023-04-25T05:30:02.111Z,99520.56
2023-04-25T05:32:51.418Z,99512.97
2023-04-25T05:35:41.317Z,99520.78
2023-04-25T05:38:31.898Z,99508.19
2023-04-25T05:41:22.012Z,99518.28
2023-04-25T05:44:10.786Z,99512.91
2023-04-25T05:46:59.335Z,99521.31
2023-04-25T05:49:47.771Z,99526.25
2023-04-25T05:52:37.575Z,99530.31
2023-04-25T05:55:26.184Z,99535.25
2023-04-25T05:58:14.770Z,99487.78
2023-04-25T06:01:03.731Z,99530.41
2023-04-25T06:03:53.954Z,99534.34
2023-04-25T06:06:42.798Z,99537.22
2023-04-25T06:09:32.600Z,99545.06
2023-04-25T06:12:21.162Z,99550.44
2023-04-25T06:15:24.568Z,99538.66
2023-04-25T06:18:16.805Z,99537.88
2023-04-25T06:21:05.652Z,99542.59
2023-04-25T06:23:54.373Z,99544.66
2023-04-25T06:26:44.338Z,99549.59
2023-04-25T06:29:32.843Z,99505.88
2023-04-25T06:32:21.254Z,99546.50
2023-04-25T06:35:11.173Z,99553.72
2023-04-25T06:37:59.598Z,99557.22
2023-04-25T06:40:48.191Z,99556.00
2023-04-25T06:43:37.959Z,99564.59
2023-04-25T06:46:26.491Z,99555.41
2023-04-25T06:49:15.130Z,99560.53
2023-04-25T06:52:03.870Z,99556.22
2023-04-25T06:54:52.363Z,99563.50
2023-04-25T06:57:40.846Z,99562.50
2023-04-25T07:00:31.309Z,99565.63
2023-04-25T07:03:20.315Z,99564.75
2023-04-25T07:06:09.129Z,99557.16
2023-04-25T07:08:57.617Z,99574.22
2023-04-25T07:11:46.076Z,99571.50
2023-04-25T07:14:34.561Z,99566.78
2023-04-25T07:17:24.427Z,99580.59
2023-04-25T07:20:13.204Z,99573.81
2023-04-25T07:23:01.688Z,99563.94
2023-04-25T07:25:50.156Z,99571.75
2023-04-25T07:28:38.617Z,99578.75
2023-04-25T07:31:27.202Z,99576.06
2023-04-25T07:34:17.615Z,99580.16
2023-04-25T07:37:06.165Z,99576.47
2023-04-25T07:39:54.650Z,99573.59
2023-04-25T07:42:43.146Z,99584.88
2023-04-25T07:45:31.654Z,99590.47
2023-04-25T07:48:20.754Z,99599.56
2023-04-25T07:51:10.603Z,99599.78
2023-04-25T07:53:59.095Z,99610.44
2023-04-25T07:56:52.756Z,99586.19
2023-04-25T07:59:41.667Z,99613.75
2023-04-25T08:02:30.259Z,99612.06
2023-04-25T08:05:21.451Z,99613.25
2023-04-25T08:08:12.689Z,99621.72
2023-04-25T08:11:01.183Z,99629.31
2023-04-25T08:13:49.649Z,99635.09
2023-04-25T08:16:38.152Z,99621.72
2023-04-25T08:19:26.720Z,99623.13
2023-04-25T08:22:15.797Z,99639.81
2023-04-25T08:25:06.645Z,99646.84
2023-04-25T08:27:55.158Z,99647.22
2023-04-25T08:30:43.864Z,99652.38
2023-04-25T08:33:33.775Z,99656.94
2023-04-25T08:36:35.550Z,99656.72
2023-04-25T08:39:27.214Z,99654.25
2023-04-25T08:42:17.331Z,99670.13
2023-04-25T08:45:07.489Z,99619.50
2023-04-25T08:47:57.911Z,99652.22
2023-04-25T08:50:52.369Z,99675.91
2023-04-25T08:53:43.738Z,99684.09
2023-04-25T08:56:35.905Z,99688.47
2023-04-25T08:59:26.318Z,99690.72
2023-04-25T09:02:17.625Z,99686.19
2023-04-25T09:05:07.608Z,99697.13
2023-04-25T09:07:57.405Z,99688.25
2023-04-25T09:10:45.880Z,99708.25
2023-04-25T09:13:34.426Z,99695.88
2023-04-25T09:16:24.296Z,99710.50
2023-04-25T09:19:31.967Z,99727.22
2023-04-25T09:22:27.098Z,99732.53
2023-04-25T09:25:16.034Z,99750.13
2023-04-25T09:28:06.542Z,99752.16
2023-04-25T09:30:57.450Z,99730.09
2023-04-25T09:33:47.614Z,99771.84
2023-04-25T09:36:36.848Z,99774.03
2023-04-25T09:39:26.789Z,99777.94
2023-04-25T09:42:15.812Z,99780.78
2023-04-25T09:45:05.805Z,99786.91
2023-04-25T09:47:59.141Z,99793.69
2023-04-25T09:51:06.111Z,99795.31
2023-04-25T09:53:54.639Z,99801.50
2023-04-25T09:56:43.486Z,99809.94
2023-04-25T09:59:32.586Z,99811.41
2023-04-25T10:02:22.788Z,99817.38
2023-04-25T10:05:12.861Z,99821.50
2023-04-25T10:08:05.175Z,99813.88
2023-04-25T10:10:53.684Z,99825.56
2023-04-25T10:13:42.631Z,99821.66
2023-04-25T10:16:31.937Z,99825.97
2023-04-25T10:19:20.696Z,99834.19
2023-04-25T10:22:12.810Z,99837.25
2023-04-25T10:25:04.888Z,99833.97
2023-04-25T10:27:53.640Z,99796.44
2023-04-25T10:30:59.329Z,99742.97
2023-04-25T10:33:47.845Z,99829.25
2023-04-25T10:36:38.396Z,99842.66
2023-04-25T10:39:29.291Z,99832.78
2023-04-25T10:42:19.660Z,99834.88
2023-04-25T10:45:09.389Z,99842.56
2023-04-25T10:47:57.900Z,99844.25
2023-04-25T10:50:46.396Z,99839.34
2023-04-25T10:53:35.691Z,99851.56
2023-04-25T10:56:25.050Z,99850.25
2023-04-25T10:59:16.758Z,99849.84
2023-04-25T11:02:13.743Z,99860.56
2023-04-25T11:05:02.473Z,99849.84
2023-04-25T11:08:03.870Z,99851.13
2023-04-25T11:10:52.855Z,99853.16
2023-04-25T11:13:41.359Z,99849.25
2023-04-25T11:16:32.145Z,99856.84
2023-04-25T11:19:21.502Z,99858.66
2023-04-25T11:22:10.195Z,99864.06
2023-04-25T11:24:58.692Z,99864.47
2023-04-25T11:27:53.720Z,99865.28
2023-04-25T11:30:42.607Z,99860.94
2023-04-25T11:33:32.529Z,99867.56
2023-04-25T11:36:21.062Z,99868.84
2023-04-25T11:39:10.065Z,99856.09
2023-04-25T11:41:59.429Z,99865.19
2023-04-25T11:44:50.179Z,99874.69
2023-04-25T11:47:39.211Z,99874.06
2023-04-25T11:50:30.317Z,99859.81
2023-04-25T11:53:19.900Z,99883.34
2023-04-25T11:56:11.582Z,99882.94
2023-04-25T11:59:01.763Z,99883.78
2023-04-25T12:01:51.257Z,99818.28
2023-04-25T12:04:39.935Z,99889.59
2023-04-25T12:07:32.261Z,99896.81
2023-04-25T12:10:21.378Z,99905.66
2023-04-25T12:13:22.964Z,99908.13
2023-04-25T12:16:11.466Z,99916.16
2023-04-25T12:19:01.041Z,99911.41
2023-04-25T12:21:58.032Z,99895.78
2023-04-25T12:24:49.185Z,99903.81
2023-04-25T12:27:38.087Z,99899.47
2023-04-25T12:30:26.578Z,99903.38
2023-04-25T12:33:15.115Z,99902.34
2023-04-25T12:36:09.444Z,99906.06
2023-04-25T12:38:57.963Z,99903.63
2023-04-25T12:41:48.740Z,99897.47
2023-04-25T12:44:37.271Z,99896.00
2023-04-25T12:47:25.976Z,99908.81
2023-04-25T12:50:14.472Z,99910.22
2023-04-25T12:53:02.908Z,99906.09
2023-04-25T12:55:51.606Z,99904.41
2023-04-25T12:58:41.487Z,99906.69
2023-04-25T13:01:30.152Z,99918.63
2023-04-25T13:04:18.807Z,99913.50
2023-04-25T13:07:07.605Z,99910.63
2023-04-25T13:09:56.760Z,99914.78
2023-04-25T13:12:45.250Z,99915.19
2023-04-25T13:15:35.097Z,99923.84
2023-04-25T13:18:27.255Z,99920.13
2023-04-25T13:21:15.825Z,99913.72
2023-04-25T13:24:04.753Z,99918.63
2023-04-25T13:26:53.249Z,99914.31
2023-04-25T13:29:42.582Z,99914.28
2023-04-25T13:32:32.457Z,99916.75
2023-04-25T13:35:20.942Z,99924.59
2023-04-25T13:38:09.874Z,99930.38
2023-04-25T13:40:58.543Z,99934.69
2023-04-25T13:43:49.364Z,99929.75
2023-04-25T13:46:46.263Z,99935.31
2023-04-25T13:49:37.438Z,99928.03
2023-04-25T13:52:26.808Z,99935.59
2023-04-25T13:55:15.306Z,99927.13
2023-04-25T13:58:08.274Z,99935.13
2023-04-25T14:00:57.156Z,99923.25
2023-04-25T14:03:45.724Z,99928.19
2023-04-25T14:06:36.458Z,99927.84
2023-04-25T14:09:26.634Z,99930.69
2023-04-25T14:12:15.378Z,99929.53
2023-04-25T14:15:04.337Z,99942.75
2023-04-25T14:17:52.862Z,99945.97
2023-04-25T14:20:41.402Z,99943.59
2023-04-25T14:23:31.203Z,99915.78
2023-04-25T14:26:19.748Z,99937.44
2023-04-25T14:29:09.576Z,99935.34
2023-04-25T14:31:58.756Z,99932.28
2023-04-25T14:34:47.197Z,99936.25
2023-04-25T14:37:35.718Z,99915.19
2023-04-25T14:40:25.715Z,99935.63
2023-04-25T14:43:14.190Z,99935.13
2023-04-25T14:46:03.076Z,99933.06
2023-04-25T14:48:51.742Z,99939.03
2023-04-25T14:51:40.248Z,99932.84
2023-04-25T14:54:28.678Z,99934.69
2023-04-25T14:57:18.873Z,99941.91
2023-04-25T15:00:10.483Z,99944.66
2023-04-25T15:02:59.477Z,99935.41
2023-04-25T15:05:48.126Z,99946.09
2023-04-25T15:08:37.140Z,99946.06
2023-04-25T15:11:25.778Z,99938.00
2023-04-25T15:14:15.882Z,99945.00
2023-04-25T15:17:04.422Z,99912.03
2023-04-25T15:19:53.036Z,99948.25
2023-04-25T15:22:42.906Z,99946.34
2023-04-25T15:25:31.415Z,99941.88
2023-04-25T15:28:22.476Z,99955.31
2023-04-25T15:31:12.517Z,99955.75
2023-04-25T15:34:01.511Z,99945.72
2023-04-25T15:36:50.016Z,99953.16
2023-04-25T15:39:38.606Z,99954.63
2023-04-25T15:42:27.107Z,99957.97
2023-04-25T15:45:17.881Z,99968.09
2023-04-25T15:48:08.564Z,99970.78
2023-04-25T15:50:57.202Z,99965.22
2023-04-25T15:53:45.776Z,99935.56
2023-04-25T15:56:34.466Z,99973.50
2023-04-25T15:59:23.324Z,99988.81
2023-04-25T16:02:11.908Z,99987.00
2023-04-25T16:05:02.137Z,99988.88
2023-04-25T16:07:53.647Z,100020.09
2023-04-25T16:10:42.975Z,100023.66
2023-04-25T16:13:33.621Z,100044.25
2023-04-25T16:16:22.146Z,100040.81
2023-04-25T16:19:10.777Z,100047.78
2023-04-25T16:22:01.676Z,100046.56
2023-04-25T16:24:50.187Z,100057.41
2023-04-25T16:27:39.346Z,100045.00
2023-04-25T16:30:27.876Z,100047.47
2023-04-25T16:33:16.689Z,100048.06
2023-04-25T16:36:05.793Z,100037.88
2023-04-25T16:38:55.786Z,100050.00
2023-04-25T16:41:44.295Z,100035.13
2023-04-25T16:44:32.788Z,100046.16
2023-04-25T16:47:21.381Z,100045.00
2023-04-25T16:50:10.481Z,100042.13
2023-04-25T16:52:58.967Z,100039.94
2023-04-25T16:55:48.799Z,100027.81
2023-04-25T16:58:37.443Z,100030.25
2023-04-25T17:01:26.100Z,100016.94
2023-04-25T17:04:14.899Z,100013.34
2023-04-25T17:07:03.501Z,100025.91
2023-04-25T17:09:51.986Z,100018.69
2023-04-25T17:12:41.858Z,100022.38
2023-04-25T17:15:31.479Z,100023.22
2023-04-25T17:18:22.662Z,100025.44
2023-04-25T17:21:13.011Z,100033.59
2023-04-25T17:24:01.530Z,100035.28
2023-04-25T17:26:50.031Z,100048.06
2023-04-25T17:29:39.947Z,100039.47
2023-04-25T17:32:28.548Z,100049.13
2023-04-25T17:35:17.140Z,100014.28
2023-04-25T17:38:05.594Z,100043.41
2023-04-25T17:40:54.316Z,100036.16
2023-04-25T17:43:42.858Z,100050.00
2023-04-25T17:46:33.052Z,100038.84
2023-04-25T17:49:21.613Z,100036.41
2023-04-25T17:52:10.154Z,100012.00
2023-04-25T17:54:58.697Z,100034.16
2023-04-25T17:57:47.188Z,100040.94
2023-04-25T18:00:35.882Z,100041.59
2023-04-25T18:03:26.247Z,100051.50
2023-04-25T18:06:15.746Z,100048.78
2023-04-25T18:09:15.816Z,100047.78
2023-04-25T18:12:04.571Z,100062.53
2023-04-25T18:14:53.094Z,100066.59
2023-04-25T18:17:41.709Z,100070.06
2023-04-25T18:20:31.669Z,100061.81
2023-04-25T18:23:20.168Z,100071.56
2023-04-25T18:26:08.963Z,100073.41
2023-04-25T18:28:57.443Z,100074.75
2023-04-25T18:31:47.694Z,100075.28
2023-04-25T18:34:38.116Z,100079.22
2023-04-25T18:37:28.804Z,100081.09
2023-04-25T18:40:17.458Z,100096.38
2023-04-25T18:43:05.915Z,100100.88
2023-04-25T18:45:54.387Z,100112.16
2023-04-25T18:48:43.054Z,100118.13
2023-04-25T18:51:32.189Z,100114.59
2023-04-25T18:54:22.189Z,100108.03
2023-04-25T18:57:14.175Z,100095.38
2023-04-25T19:00:05.325Z,100122.16
2023-04-25T19:02:56.001Z,100133.31
2023-04-25T19:05:44.692Z,100135.16
2023-04-25T19:08:33.215Z,100133.13
2023-04-25T19:11:23.292Z,100136.19
2023-04-25T19:14:12.187Z,100139.28
2023-04-25T19:17:01.050Z,100146.13
2023-04-25T19:19:49.647Z,100146.72
2023-04-25T19:22:38.191Z,100137.25
2023-04-25T19:25:27.044Z,100144.31
2023-04-25T19:28:17.061Z,100144.50
2023-04-25T19:31:05.696Z,100144.50
2023-04-25T19:33:54.551Z,100147.19
2023-04-25T19:36:44.156Z,100152.91
2023-04-25T19:39:32.715Z,100150.63
2023-04-25T19:42:21.642Z,100158.63
2023-04-25T19:45:12.784Z,100163.16
2023-04-25T19:48:03.604Z,100096.34
2023-04-25T19:50:52.396Z,100150.19
2023-04-25T19:53:41.168Z,100159.91
2023-04-25T19:56:29.710Z,100160.56
2023-04-25T19:59:18.236Z,100164.81
2023-04-25T20:02:11.885Z,100165.25
2023-04-25T20:05:01.382Z,100173.66
2023-04-25T20:07:50.461Z,100178.19
2023-04-25T20:10:39.016Z,100182.69
2023-04-25T20:13:27.573Z,100175.69
2023-04-25T20:16:20.386Z,100180.22
2023-04-25T20:19:10.324Z,100179.59
2023-04-25T20:21:58.801Z,100188.41
2023-04-25T20:24:47.269Z,100177.47
2023-04-25T20:27:37.791Z,100186.50
2023-04-25T20:30:26.290Z,100187.53
2023-04-25T20:33:14.943Z,100187.91
2023-04-25T20:36:05.168Z,100190.00
2023-04-25T20:38:53.959Z,100170.50
2023-04-25T20:41:44.652Z,100194.50
2023-04-25T20:44:33.175Z,100192.88
2023-04-25T20:47:22.356Z,100189.53
2023-04-25T20:50:12.192Z,100190.00
2023-04-25T20:53:03.543Z,100181.34
2023-04-25T20:55:52.278Z,100177.22
2023-04-25T20:58:41.147Z,100185.59
2023-04-25T21:01:30.215Z,100189.53
2023-04-25T21:04:18.824Z,100195.25
2023-04-25T21:07:07.454Z,100192.16
2023-04-25T21:09:57.207Z,100188.84
2023-04-25T21:12:49.362Z,100193.34
2023-04-25T21:15:38.030Z,100197.94
2023-04-25T21:18:27.047Z,100194.28
2023-04-25T21:21:15.806Z,100208.06
2023-04-25T21:24:04.688Z,100191.88
2023-04-25T21:26:54.586Z,100201.81
2023-04-25T21:29:43.087Z,100209.00
2023-04-25T21:32:31.969Z,100207.34
2023-04-25T21:35:21.431Z,100206.25
2023-04-25T21:38:09.933Z,100206.44
2023-04-25T21:40:58.443Z,100190.66
2023-04-25T21:43:48.253Z,100198.69
2023-04-25T21:46:37.264Z,100213.16
2023-04-25T21:49:29.283Z,100196.66
2023-04-25T21:52:20.668Z,100216.13
2023-04-25T21:55:10.102Z,100207.53
2023-04-25T21:57:58.574Z,100232.06
2023-04-25T22:00:49.063Z,100229.00
2023-04-25T22:03:37.718Z,100229.38
2023-04-25T22:06:26.428Z,100221.94
2023-04-25T22:09:16.277Z,100221.09
2023-04-25T22:12:05.291Z,100219.31
2023-04-25T22:14:53.854Z,100223.31
2023-04-25T22:17:43.665Z,100227.63
2023-04-25T22:20:32.367Z,100194.47
2023-04-25T22:23:20.837Z,100229.63
2023-04-25T22:26:09.860Z,100242.38
2023-04-25T22:28:58.369Z,100239.59
2023-04-25T22:31:46.984Z,100228.53
2023-04-25T22:34:37.179Z,100242.84
2023-04-25T22:37:25.699Z,100242.03
2023-04-25T22:40:15.452Z,100210.41
2023-04-25T22:43:03.946Z,100241.19
2023-04-25T22:45:52.518Z,100245.88
2023-04-25T22:48:41.082Z,100229.94
2023-04-25T22:51:31.047Z,100223.03
2023-04-25T22:54:19.566Z,100241.91
2023-04-25T22:57:08.372Z,100239.13
2023-04-25T22:59:57.556Z,100244.22
2023-04-25T23:02:47.187Z,100240.88
2023-04-25T23:05:35.875Z,100243.28
2023-04-25T23:08:25.772Z,100250.66
2023-04-25T23:11:14.243Z,100246.50
2023-04-25T23:14:03.798Z,100241.19
2023-04-25T23:16:52.571Z,100242.81
2023-04-25T23:19:41.075Z,100247.50
2023-04-25T23:22:29.870Z,100249.91
2023-04-25T23:25:20.175Z,100231.59
2023-04-25T23:28:08.634Z,100254.34
2023-04-25T23:31:04.638Z,100258.91
2023-04-25T23:33:53.146Z,100267.09
2023-04-25T23:36:41.735Z,100265.63
2023-04-25T23:39:30.580Z,100260.75
2023-04-25T23:42:20.524Z,100268.41
2023-04-25T23:45:10.276Z,100265.06
2023-04-25T23:47:58.820Z,100273.63
2023-04-25T23:50:47.306Z,100273.63
2023-04-25T23:53:35.849Z,100279.13
2023-04-25T23:56:24.549Z,100280.34
2023-04-25T23:59:14.369Z,100273.31
